Machrihanish, United Kingdom
Current Conditions -  °F | °C
As of 10:20 PM on Monday 20 Oct 2014 (Local Time) from EGPI Reporting Station
Rain Showers Rain Showers  
Wind Chill: 55°   Ceiling: 2600
Heat Index: 55°   Visibility: 3mi
Dew Point: 54°   Wind: 21mph
Humidity: 94%   Direction: 180°S
Pressure: 29.35"   Gusts: NA
Location:  55.43°N, 5.7°W
Report Text: EGPI 202120Z AUTO 18018KT 150V210 5000 SHRA FEW017/// BKN026/// 13/12 Q0994
Loading
Personal Weather Stations






























Interactive Weather Map
Tropical Storm Tracking
New forecast layout! Learn more

10-Day Weather Forecast

Advertisements
Track Severe Weather on mobile